Terminal Aerodrome Forecast
Issued by NWS

Home | Current Version | Previous Version | Graphics & Text | Print | Product List | Glossary On
Versions: 1 2 3 4 5 6 7 8 9 10 11 12 13 14 15 16 17 18
000
FTUS43 KBIS 200500
TAFDIK
TAF
KDIK 200521Z 2006/2106 17005KT P6SM SKC
     FM200900 21007KT P6SM BKN100 OVC250
     FM201500 26013KT P6SM SCT100 BKN250
     FM210100 24008KT P6SM SCT250=

USA.gov is the U.S. government's official web portal to all federal, state and local government web resources and services.